sensor_id;sensor_type;location;lat;lon;timestamp;pressure;altitude;pressure_sealevel;temperature;humidity
83444;BME280;73374;41.170;-96.156;2024-01-30T00:01:50;97613.81;;;6.73;66.16
83444;BME280;73374;41.170;-96.156;2024-01-30T00:06:54;97620.38;;;6.47;67.15
83444;BME280;73374;41.170;-96.156;2024-01-30T00:11:58;97622.91;;;6.37;67.61
83444;BME280;73374;41.170;-96.156;2024-01-30T00:17:02;97633.53;;;6.23;68.11
83444;BME280;73374;41.170;-96.156;2024-01-30T00:22:05;97634.19;;;5.94;68.37
83444;BME280;73374;41.170;-96.156;2024-01-30T00:27:10;97634.09;;;5.85;68.84
83444;BME280;73374;41.170;-96.156;2024-01-30T00:32:13;97640.47;;;5.69;69.60
83444;BME280;73374;41.170;-96.156;2024-01-30T00:37:16;97651.78;;;5.57;70.66
83444;BME280;73374;41.170;-96.156;2024-01-30T00:42:20;97644.50;;;5.62;70.13
83444;BME280;73374;41.170;-96.156;2024-01-30T00:47:23;97651.94;;;5.44;71.27
83444;BME280;73374;41.170;-96.156;2024-01-30T00:52:26;97660.88;;;5.29;72.08
83444;BME280;73374;41.170;-96.156;2024-01-30T00:57:31;97654.34;;;5.25;71.67
83444;BME280;73374;41.170;-96.156;2024-01-30T01:02:34;97653.78;;;5.10;71.80
83444;BME280;73374;41.170;-96.156;2024-01-30T01:07:38;97661.81;;;5.17;72.51
83444;BME280;73374;41.170;-96.156;2024-01-30T01:12:42;97660.56;;;5.11;72.21
83444;BME280;73374;41.170;-96.156;2024-01-30T01:17:45;97672.75;;;5.09;72.60
83444;BME280;73374;41.170;-96.156;2024-01-30T01:22:48;97677.66;;;4.90;73.34
83444;BME280;73374;41.170;-96.156;2024-01-30T01:27:53;97681.75;;;4.93;72.76
83444;BME280;73374;41.170;-96.156;2024-01-30T01:32:56;97664.31;;;4.63;73.42
83444;BME280;73374;41.170;-96.156;2024-01-30T01:37:59;97703.16;;;4.82;73.50
83444;BME280;73374;41.170;-96.156;2024-01-30T01:43:04;97700.47;;;4.83;73.22
83444;BME280;73374;41.170;-96.156;2024-01-30T01:48:08;97705.84;;;4.80;73.88
83444;BME280;73374;41.170;-96.156;2024-01-30T01:53:12;97690.41;;;4.80;73.06
83444;BME280;73374;41.170;-96.156;2024-01-30T01:58:18;97696.25;;;4.82;73.53
83444;BME280;73374;41.170;-96.156;2024-01-30T02:03:22;97694.88;;;4.78;73.45
83444;BME280;73374;41.170;-96.156;2024-01-30T02:08:26;97704.56;;;4.75;73.38
83444;BME280;73374;41.170;-96.156;2024-01-30T02:13:31;97698.97;;;4.70;73.36
83444;BME280;73374;41.170;-96.156;2024-01-30T02:18:34;97702.34;;;4.70;73.57
83444;BME280;73374;41.170;-96.156;2024-01-30T02:23:40;97700.81;;;4.68;72.83
83444;BME280;73374;41.170;-96.156;2024-01-30T02:28:43;97699.41;;;4.64;73.82
83444;BME280;73374;41.170;-96.156;2024-01-30T02:33:46;97692.50;;;4.53;73.39
83444;BME280;73374;41.170;-96.156;2024-01-30T02:38:51;97687.69;;;4.48;73.48
83444;BME280;73374;41.170;-96.156;2024-01-30T02:43:54;97707.22;;;4.40;74.24
83444;BME280;73374;41.170;-96.156;2024-01-30T02:48:57;97698.41;;;4.31;73.86
83444;BME280;73374;41.170;-96.156;2024-01-30T02:54:02;97696.31;;;4.25;74.46
83444;BME280;73374;41.170;-96.156;2024-01-30T02:59:05;97698.72;;;4.15;73.94
83444;BME280;73374;41.170;-96.156;2024-01-30T03:04:08;97708.66;;;4.09;74.09
83444;BME280;73374;41.170;-96.156;2024-01-30T03:09:13;97702.44;;;4.00;74.04
83444;BME280;73374;41.170;-96.156;2024-01-30T03:14:16;97708.88;;;4.06;74.38
83444;BME280;73374;41.170;-96.156;2024-01-30T03:19:19;97717.41;;;4.06;73.71
83444;BME280;73374;41.170;-96.156;2024-01-30T03:24:24;97728.75;;;4.04;73.78
83444;BME280;73374;41.170;-96.156;2024-01-30T03:29:28;97742.56;;;3.90;74.60
83444;BME280;73374;41.170;-96.156;2024-01-30T03:34:31;97744.69;;;3.96;74.09
83444;BME280;73374;41.170;-96.156;2024-01-30T03:39:36;97753.09;;;3.87;75.05
83444;BME280;73374;41.170;-96.156;2024-01-30T03:44:39;97736.63;;;3.89;74.81
83444;BME280;73374;41.170;-96.156;2024-01-30T03:49:42;97729.25;;;3.85;74.92
83444;BME280;73374;41.170;-96.156;2024-01-30T03:54:47;97742.50;;;3.79;74.98
83444;BME280;73374;41.170;-96.156;2024-01-30T03:59:51;97749.09;;;3.83;74.76
83444;BME280;73374;41.170;-96.156;2024-01-30T04:04:54;97729.63;;;3.68;75.29
83444;BME280;73374;41.170;-96.156;2024-01-30T04:09:59;97739.25;;;3.77;74.66
83444;BME280;73374;41.170;-96.156;2024-01-30T04:15:02;97722.28;;;3.74;74.59
83444;BME280;73374;41.170;-96.156;2024-01-30T04:20:06;97735.13;;;3.74;74.67
83444;BME280;73374;41.170;-96.156;2024-01-30T04:25:11;97731.97;;;3.71;75.28
83444;BME280;73374;41.170;-96.156;2024-01-30T04:30:14;97733.84;;;3.69;74.13
83444;BME280;73374;41.170;-96.156;2024-01-30T04:35:17;97743.72;;;3.62;75.14
83444;BME280;73374;41.170;-96.156;2024-01-30T04:40:22;97737.13;;;3.71;75.12
83444;BME280;73374;41.170;-96.156;2024-01-30T04:45:25;97747.09;;;3.62;74.58
83444;BME280;73374;41.170;-96.156;2024-01-30T04:50:28;97746.38;;;3.60;74.76
83444;BME280;73374;41.170;-96.156;2024-01-30T04:55:34;97750.31;;;3.53;74.90
83444;BME280;73374;41.170;-96.156;2024-01-30T05:00:37;97762.56;;;3.50;75.62
83444;BME280;73374;41.170;-96.156;2024-01-30T05:05:41;97769.16;;;3.41;75.72
83444;BME280;73374;41.170;-96.156;2024-01-30T05:10:45;97781.50;;;3.36;76.15
83444;BME280;73374;41.170;-96.156;2024-01-30T05:15:49;97792.19;;;3.30;76.46
83444;BME280;73374;41.170;-96.156;2024-01-30T05:20:52;97781.63;;;3.22;76.66
83444;BME280;73374;41.170;-96.156;2024-01-30T05:25:56;97792.81;;;3.21;76.56
83444;BME280;73374;41.170;-96.156;2024-01-30T05:30:59;97791.19;;;3.20;76.82
83444;BME280;73374;41.170;-96.156;2024-01-30T05:36:03;97793.44;;;3.12;76.56
83444;BME280;73374;41.170;-96.156;2024-01-30T05:41:08;97793.53;;;3.10;76.55
83444;BME280;73374;41.170;-96.156;2024-01-30T05:46:12;97801.38;;;2.96;76.93
83444;BME280;73374;41.170;-96.156;2024-01-30T05:51:15;97801.97;;;2.87;77.12
83444;BME280;73374;41.170;-96.156;2024-01-30T05:56:20;97802.78;;;2.75;77.69
83444;BME280;73374;41.170;-96.156;2024-01-30T06:01:23;97790.88;;;2.61;78.30
83444;BME280;73374;41.170;-96.156;2024-01-30T06:06:26;97792.38;;;2.51;78.54
83444;BME280;73374;41.170;-96.156;2024-01-30T06:11:31;97779.06;;;2.46;78.65
83444;BME280;73374;41.170;-96.156;2024-01-30T06:16:34;97794.44;;;2.46;79.09
83444;BME280;73374;41.170;-96.156;2024-01-30T06:21:36;97792.75;;;2.32;79.54
83444;BME280;73374;41.170;-96.156;2024-01-30T06:26:41;97775.69;;;2.18;79.43
83444;BME280;73374;41.170;-96.156;2024-01-30T06:31:44;97778.66;;;2.12;80.07
83444;BME280;73374;41.170;-96.156;2024-01-30T06:36:47;97777.78;;;1.99;80.38
83444;BME280;73374;41.170;-96.156;2024-01-30T06:41:51;97788.53;;;1.91;80.82
83444;BME280;73374;41.170;-96.156;2024-01-30T06:46:54;97769.13;;;1.87;80.97
83444;BME280;73374;41.170;-96.156;2024-01-30T06:51:57;97767.50;;;1.86;81.36
83444;BME280;73374;41.170;-96.156;2024-01-30T06:57:01;97770.47;;;1.66;81.84
83444;BME280;73374;41.170;-96.156;2024-01-30T07:02:05;97781.66;;;1.65;82.18
83444;BME280;73374;41.170;-96.156;2024-01-30T07:07:08;97773.06;;;1.51;82.23
83444;BME280;73374;41.170;-96.156;2024-01-30T07:12:12;97772.78;;;1.56;82.41
83444;BME280;73374;41.170;-96.156;2024-01-30T07:17:15;97774.19;;;1.47;82.51
83444;BME280;73374;41.170;-96.156;2024-01-30T07:22:18;97775.75;;;1.36;82.67
83444;BME280;73374;41.170;-96.156;2024-01-30T07:27:23;97786.28;;;1.31;83.34
83444;BME280;73374;41.170;-96.156;2024-01-30T07:32:26;97789.22;;;1.25;83.51
83444;BME280;73374;41.170;-96.156;2024-01-30T07:37:29;97787.47;;;1.26;83.52
83444;BME280;73374;41.170;-96.156;2024-01-30T07:42:33;97787.72;;;1.21;83.50
83444;BME280;73374;41.170;-96.156;2024-01-30T07:47:36;97783.19;;;1.26;83.22
83444;BME280;73374;41.170;-96.156;2024-01-30T07:52:39;97789.66;;;1.17;83.67
83444;BME280;73374;41.170;-96.156;2024-01-30T07:57:44;97786.66;;;1.25;83.18
83444;BME280;73374;41.170;-96.156;2024-01-30T08:02:47;97798.81;;;1.07;83.89
83444;BME280;73374;41.170;-96.156;2024-01-30T08:07:50;97797.31;;;1.03;83.47
83444;BME280;73374;41.170;-96.156;2024-01-30T08:12:55;97797.81;;;1.10;83.51
83444;BME280;73374;41.170;-96.156;2024-01-30T08:17:58;97806.13;;;1.28;83.57
83444;BME280;73374;41.170;-96.156;2024-01-30T08:23:01;97813.25;;;1.23;82.97
83444;BME280;73374;41.170;-96.156;2024-01-30T08:28:06;97803.91;;;1.50;83.01
83444;BME280;73374;41.170;-96.156;2024-01-30T08:33:09;97814.81;;;1.39;82.75
83444;BME280;73374;41.170;-96.156;2024-01-30T08:38:12;97816.88;;;1.33;83.01
83444;BME280;73374;41.170;-96.156;2024-01-30T08:43:17;97815.81;;;1.23;82.74
83444;BME280;73374;41.170;-96.156;2024-01-30T08:48:20;97812.97;;;1.13;83.35
83444;BME280;73374;41.170;-96.156;2024-01-30T08:53:23;97808.13;;;1.08;83.59
83444;BME280;73374;41.170;-96.156;2024-01-30T08:58:28;97814.72;;;1.12;83.75
83444;BME280;73374;41.170;-96.156;2024-01-30T09:03:31;97821.75;;;1.09;83.72
83444;BME280;73374;41.170;-96.156;2024-01-30T09:08:34;97805.56;;;1.08;83.22
83444;BME280;73374;41.170;-96.156;2024-01-30T09:13:39;97778.22;;;0.80;83.74
83444;BME280;73374;41.170;-96.156;2024-01-30T09:18:42;97794.69;;;0.76;84.07
83444;BME280;73374;41.170;-96.156;2024-01-30T09:23:45;97795.69;;;0.74;84.63
83444;BME280;73374;41.170;-96.156;2024-01-30T09:28:50;97793.00;;;0.61;84.41
83444;BME280;73374;41.170;-96.156;2024-01-30T09:33:53;97795.63;;;0.45;84.45
83444;BME280;73374;41.170;-96.156;2024-01-30T09:38:56;97804.56;;;0.38;85.11
83444;BME280;73374;41.170;-96.156;2024-01-30T09:44:02;97790.53;;;0.29;85.41
83444;BME280;73374;41.170;-96.156;2024-01-30T09:49:08;97788.00;;;0.29;86.06
83444;BME280;73374;41.170;-96.156;2024-01-30T09:54:14;97776.78;;;0.32;85.38
83444;BME280;73374;41.170;-96.156;2024-01-30T09:59:18;97770.50;;;0.38;86.05
83444;BME280;73374;41.170;-96.156;2024-01-30T10:04:21;97767.47;;;0.31;85.59
83444;BME280;73374;41.170;-96.156;2024-01-30T10:09:24;97765.13;;;0.12;86.20
83444;BME280;73374;41.170;-96.156;2024-01-30T10:14:28;97761.94;;;0.09;86.24
83444;BME280;73374;41.170;-96.156;2024-01-30T10:19:34;97760.78;;;-0.02;86.81
83444;BME280;73374;41.170;-96.156;2024-01-30T10:24:37;97753.47;;;-0.08;86.99
83444;BME280;73374;41.170;-96.156;2024-01-30T10:29:41;97746.41;;;-0.18;87.36
83444;BME280;73374;41.170;-96.156;2024-01-30T10:34:44;97744.28;;;-0.26;86.92
83444;BME280;73374;41.170;-96.156;2024-01-30T10:39:47;97741.56;;;-0.39;87.54
83444;BME280;73374;41.170;-96.156;2024-01-30T10:45:00;97754.00;;;-0.33;87.55
83444;BME280;73374;41.170;-96.156;2024-01-30T10:50:05;97744.03;;;-0.37;87.75
83444;BME280;73374;41.170;-96.156;2024-01-30T10:55:11;97733.59;;;-0.48;87.58
83444;BME280;73374;41.170;-96.156;2024-01-30T11:00:16;97740.44;;;-0.49;87.88
83444;BME280;73374;41.170;-96.156;2024-01-30T11:05:28;97746.19;;;-0.61;87.61
83444;BME280;73374;41.170;-96.156;2024-01-30T11:10:45;97727.03;;;-0.68;87.84
83444;BME280;73374;41.170;-96.156;2024-01-30T11:15:50;97736.47;;;-0.70;88.45
83444;BME280;73374;41.170;-96.156;2024-01-30T11:20:56;97737.38;;;-0.71;88.08
83444;BME280;73374;41.170;-96.156;2024-01-30T11:25:59;97736.56;;;-0.72;88.69
83444;BME280;73374;41.170;-96.156;2024-01-30T11:31:07;97748.34;;;-0.69;88.75
83444;BME280;73374;41.170;-96.156;2024-01-30T11:36:12;97740.09;;;-0.58;88.79
83444;BME280;73374;41.170;-96.156;2024-01-30T11:41:16;97734.59;;;-0.67;88.66
83444;BME280;73374;41.170;-96.156;2024-01-30T11:46:25;97728.00;;;-0.55;88.60
83444;BME280;73374;41.170;-96.156;2024-01-30T11:51:28;97730.06;;;-0.62;89.09
83444;BME280;73374;41.170;-96.156;2024-01-30T11:56:33;97726.94;;;-0.67;88.78
83444;BME280;73374;41.170;-96.156;2024-01-30T12:01:38;97723.66;;;-0.69;89.02
83444;BME280;73374;41.170;-96.156;2024-01-30T12:06:41;97727.16;;;-0.71;88.95
83444;BME280;73374;41.170;-96.156;2024-01-30T12:11:45;97730.63;;;-0.88;88.53
83444;BME280;73374;41.170;-96.156;2024-01-30T12:16:49;97745.69;;;-0.83;88.46
83444;BME280;73374;41.170;-96.156;2024-01-30T12:21:55;97743.31;;;-0.86;88.54
83444;BME280;73374;41.170;-96.156;2024-01-30T12:26:59;97743.88;;;-0.97;89.17
83444;BME280;73374;41.170;-96.156;2024-01-30T12:32:05;97746.25;;;-0.94;89.11
83444;BME280;73374;41.170;-96.156;2024-01-30T12:37:09;97755.22;;;-1.03;89.43
83444;BME280;73374;41.170;-96.156;2024-01-30T12:42:12;97754.41;;;-1.03;89.82
83444;BME280;73374;41.170;-96.156;2024-01-30T12:47:17;97761.97;;;-1.02;89.09
83444;BME280;73374;41.170;-96.156;2024-01-30T12:52:21;97768.19;;;-1.07;89.76
83444;BME280;73374;41.170;-96.156;2024-01-30T12:57:25;97759.22;;;-1.14;89.51
83444;BME280;73374;41.170;-96.156;2024-01-30T13:02:29;97764.31;;;-1.14;89.80
83444;BME280;73374;41.170;-96.156;2024-01-30T13:07:32;97757.72;;;-1.18;89.87
83444;BME280;73374;41.170;-96.156;2024-01-30T13:12:35;97765.50;;;-1.22;89.75
83444;BME280;73374;41.170;-96.156;2024-01-30T13:17:40;97763.03;;;-1.23;89.52
83444;BME280;73374;41.170;-96.156;2024-01-30T13:22:43;97770.09;;;-1.28;89.53
83444;BME280;73374;41.170;-96.156;2024-01-30T13:27:47;97766.81;;;-1.30;89.97
83444;BME280;73374;41.170;-96.156;2024-01-30T13:32:52;97772.19;;;-1.19;89.57
83444;BME280;73374;41.170;-96.156;2024-01-30T13:37:55;97760.84;;;-1.13;89.78
83444;BME280;73374;41.170;-96.156;2024-01-30T13:42:58;97765.41;;;-1.03;89.29
83444;BME280;73374;41.170;-96.156;2024-01-30T13:48:04;97775.53;;;-1.01;89.49
83444;BME280;73374;41.170;-96.156;2024-01-30T13:53:07;97782.38;;;-1.02;89.53
83444;BME280;73374;41.170;-96.156;2024-01-30T13:58:10;97773.66;;;-0.82;88.93
83444;BME280;73374;41.170;-96.156;2024-01-30T14:03:15;97776.88;;;-0.78;89.34
83444;BME280;73374;41.170;-96.156;2024-01-30T14:08:18;97780.91;;;-0.74;88.96
83444;BME280;73374;41.170;-96.156;2024-01-30T14:13:21;97776.81;;;-0.29;88.08
83444;BME280;73374;41.170;-96.156;2024-01-30T14:18:26;97797.78;;;0.37;86.47
83444;BME280;73374;41.170;-96.156;2024-01-30T14:23:29;97774.66;;;0.54;83.65
83444;BME280;73374;41.170;-96.156;2024-01-30T14:28:32;97790.75;;;0.99;82.11
83444;BME280;73374;41.170;-96.156;2024-01-30T14:33:37;97791.53;;;1.98;79.12
83444;BME280;73374;41.170;-96.156;2024-01-30T14:38:42;97787.88;;;3.30;76.36
83444;BME280;73374;41.170;-96.156;2024-01-30T14:43:47;97797.38;;;3.90;68.90
83444;BME280;73374;41.170;-96.156;2024-01-30T14:48:52;97801.91;;;4.35;70.96
83444;BME280;73374;41.170;-96.156;2024-01-30T14:53:55;97780.44;;;5.04;68.01
83444;BME280;73374;41.170;-96.156;2024-01-30T14:58:58;97790.03;;;6.65;63.76
83444;BME280;73374;41.170;-96.156;2024-01-30T15:04:03;97780.47;;;7.69;60.21
83444;BME280;73374;41.170;-96.156;2024-01-30T15:09:07;97784.75;;;6.67;62.50
83444;BME280;73374;41.170;-96.156;2024-01-30T15:14:09;97785.13;;;7.35;59.70
83444;BME280;73374;41.170;-96.156;2024-01-30T15:19:14;97785.78;;;7.06;59.74
83444;BME280;73374;41.170;-96.156;2024-01-30T15:24:17;97794.22;;;7.08;59.52
83444;BME280;73374;41.170;-96.156;2024-01-30T15:29:20;97791.69;;;6.87;61.63
83444;BME280;73374;41.170;-96.156;2024-01-30T15:34:24;97792.66;;;7.47;57.24
83444;BME280;73374;41.170;-96.156;2024-01-30T15:39:28;97792.41;;;8.58;55.17
83444;BME280;73374;41.170;-96.156;2024-01-30T15:44:31;97783.91;;;7.89;56.81
83444;BME280;73374;41.170;-96.156;2024-01-30T15:49:36;97786.31;;;7.71;56.77
83444;BME280;73374;41.170;-96.156;2024-01-30T15:54:39;97788.16;;;8.76;54.42
83444;BME280;73374;41.170;-96.156;2024-01-30T15:59:42;97789.53;;;10.10;50.32
83444;BME280;73374;41.170;-96.156;2024-01-30T16:10:26;97803.03;;;11.70;46.88
83444;BME280;73374;41.170;-96.156;2024-01-30T16:15:29;97786.63;;;13.88;43.49
83444;BME280;73374;41.170;-96.156;2024-01-30T16:20:32;97786.06;;;14.32;40.60
83444;BME280;73374;41.170;-96.156;2024-01-30T16:25:37;97796.41;;;13.63;41.04
83444;BME280;73374;41.170;-96.156;2024-01-30T16:30:40;97778.91;;;13.24;42.08
83444;BME280;73374;41.170;-96.156;2024-01-30T16:35:43;97810.53;;;12.48;43.95
83444;BME280;73374;41.170;-96.156;2024-01-30T16:40:56;97816.34;;;13.87;40.21
83444;BME280;73374;41.170;-96.156;2024-01-30T16:45:59;97830.13;;;16.36;37.52
83444;BME280;73374;41.170;-96.156;2024-01-30T16:51:02;97833.81;;;13.47;41.75
83444;BME280;73374;41.170;-96.156;2024-01-30T16:56:07;97828.50;;;14.88;38.53
83444;BME280;73374;41.170;-96.156;2024-01-30T17:01:10;97838.88;;;13.16;39.97
83444;BME280;73374;41.170;-96.156;2024-01-30T17:06:14;97823.25;;;15.11;38.32
83444;BME280;73374;41.170;-96.156;2024-01-30T17:11:18;97822.19;;;17.15;33.99
83444;BME280;73374;41.170;-96.156;2024-01-30T17:16:21;97822.66;;;17.25;34.49
83444;BME280;73374;41.170;-96.156;2024-01-30T17:21:25;97819.31;;;18.14;33.43
83444;BME280;73374;41.170;-96.156;2024-01-30T17:26:29;97810.56;;;16.75;36.48
83444;BME280;73374;41.170;-96.156;2024-01-30T17:31:33;97826.50;;;15.57;37.08
83444;BME280;73374;41.170;-96.156;2024-01-30T17:36:36;97822.19;;;17.15;34.58
83444;BME280;73374;41.170;-96.156;2024-01-30T17:41:41;97820.91;;;17.04;36.02
83444;BME280;73374;41.170;-96.156;2024-01-30T17:46:44;97821.53;;;15.18;36.72
83444;BME280;73374;41.170;-96.156;2024-01-30T17:51:47;97809.78;;;15.14;37.58
83444;BME280;73374;41.170;-96.156;2024-01-30T17:56:51;97810.72;;;16.95;35.31
83444;BME280;73374;41.170;-96.156;2024-01-30T18:01:54;97802.16;;;18.24;32.77
83444;BME280;73374;41.170;-96.156;2024-01-30T18:06:57;97799.16;;;18.47;32.29
83444;BME280;73374;41.170;-96.156;2024-01-30T18:12:03;97798.44;;;17.64;34.61
83444;BME280;73374;41.170;-96.156;2024-01-30T18:17:06;97781.47;;;18.21;32.35
83444;BME280;73374;41.170;-96.156;2024-01-30T18:22:09;97791.75;;;17.62;36.87
83444;BME280;73374;41.170;-96.156;2024-01-30T18:27:14;97789.72;;;17.98;33.23
83444;BME280;73374;41.170;-96.156;2024-01-30T18:32:17;97790.13;;;18.02;34.33
83444;BME280;73374;41.170;-96.156;2024-01-30T18:37:20;97783.00;;;19.87;31.72
83444;BME280;73374;41.170;-96.156;2024-01-30T18:42:24;97790.09;;;18.83;32.09
83444;BME280;73374;41.170;-96.156;2024-01-30T18:47:27;97790.34;;;19.85;32.06
83444;BME280;73374;41.170;-96.156;2024-01-30T18:52:31;97777.88;;;19.35;30.79
83444;BME280;73374;41.170;-96.156;2024-01-30T18:57:35;97775.63;;;19.38;31.15
83444;BME280;73374;41.170;-96.156;2024-01-30T19:02:38;97773.59;;;20.43;30.55
83444;BME280;73374;41.170;-96.156;2024-01-30T19:07:41;97774.09;;;21.33;28.00
83444;BME280;73374;41.170;-96.156;2024-01-30T19:12:46;97773.50;;;22.88;29.27
83444;BME280;73374;41.170;-96.156;2024-01-30T19:17:49;97768.78;;;19.24;30.63
83444;BME280;73374;41.170;-96.156;2024-01-30T19:22:52;97762.56;;;19.83;31.12
83444;BME280;73374;41.170;-96.156;2024-01-30T19:27:57;97755.47;;;17.78;31.85
83444;BME280;73374;41.170;-96.156;2024-01-30T19:33:00;97759.44;;;21.55;28.70
83444;BME280;73374;41.170;-96.156;2024-01-30T19:38:04;97766.38;;;21.50;28.84
83444;BME280;73374;41.170;-96.156;2024-01-30T19:43:08;97765.88;;;21.59;28.53
83444;BME280;73374;41.170;-96.156;2024-01-30T19:48:11;97772.25;;;23.02;27.27
83444;BME280;73374;41.170;-96.156;2024-01-30T19:53:14;97773.91;;;22.61;26.47
83444;BME280;73374;41.170;-96.156;2024-01-30T19:58:19;97771.81;;;22.10;27.54
83444;BME280;73374;41.170;-96.156;2024-01-30T20:03:22;97774.72;;;21.53;27.54
83444;BME280;73374;41.170;-96.156;2024-01-30T20:08:25;97764.28;;;23.60;25.68
83444;BME280;73374;41.170;-96.156;2024-01-30T20:13:30;97753.88;;;21.93;27.65
83444;BME280;73374;41.170;-96.156;2024-01-30T20:18:33;97743.69;;;22.39;27.48
83444;BME280;73374;41.170;-96.156;2024-01-30T20:23:36;97761.00;;;20.07;30.13
83444;BME280;73374;41.170;-96.156;2024-01-30T20:28:40;97754.00;;;20.57;29.39
83444;BME280;73374;41.170;-96.156;2024-01-30T20:33:44;97758.69;;;22.15;28.54
83444;BME280;73374;41.170;-96.156;2024-01-30T20:38:47;97768.59;;;18.59;30.81
83444;BME280;73374;41.170;-96.156;2024-01-30T20:43:51;97764.88;;;20.04;29.29
83444;BME280;73374;41.170;-96.156;2024-01-30T20:48:54;97762.09;;;18.55;33.33
83444;BME280;73374;41.170;-96.156;2024-01-30T20:53:58;97772.97;;;17.30;32.99
83444;BME280;73374;41.170;-96.156;2024-01-30T20:59:02;97763.84;;;20.43;30.25
83444;BME280;73374;41.170;-96.156;2024-01-30T21:04:05;97767.03;;;20.21;29.75
83444;BME280;73374;41.170;-96.156;2024-01-30T21:09:09;97768.72;;;19.57;31.18
83444;BME280;73374;41.170;-96.156;2024-01-30T21:14:13;97785.03;;;17.18;34.83
83444;BME280;73374;41.170;-96.156;2024-01-30T21:19:17;97793.25;;;17.71;34.82
83444;BME280;73374;41.170;-96.156;2024-01-30T21:24:20;97787.66;;;19.99;31.39
83444;BME280;73374;41.170;-96.156;2024-01-30T21:29:25;97794.34;;;17.21;34.50
83444;BME280;73374;41.170;-96.156;2024-01-30T21:34:28;97793.56;;;18.02;34.35
83444;BME280;73374;41.170;-96.156;2024-01-30T21:39:31;97802.75;;;17.37;35.09
83444;BME280;73374;41.170;-96.156;2024-01-30T21:44:36;97798.50;;;17.36;33.85
83444;BME280;73374;41.170;-96.156;2024-01-30T21:49:39;97796.88;;;16.01;38.06
83444;BME280;73374;41.170;-96.156;2024-01-30T21:54:43;97798.53;;;14.90;40.00
83444;BME280;73374;41.170;-96.156;2024-01-30T21:59:48;97792.00;;;17.32;35.58
83444;BME280;73374;41.170;-96.156;2024-01-30T22:04:50;97793.78;;;16.33;35.40
83444;BME280;73374;41.170;-96.156;2024-01-30T22:09:56;97786.78;;;16.40;35.96
83444;BME280;73374;41.170;-96.156;2024-01-30T22:15:01;97772.47;;;17.48;34.51
83444;BME280;73374;41.170;-96.156;2024-01-30T22:20:05;97772.69;;;16.84;34.19
83444;BME280;73374;41.170;-96.156;2024-01-30T22:25:11;97766.59;;;17.39;33.53
83444;BME280;73374;41.170;-96.156;2024-01-30T22:30:16;97785.25;;;16.10;35.36
83444;BME280;73374;41.170;-96.156;2024-01-30T22:35:19;97775.84;;;16.58;35.59
83444;BME280;73374;41.170;-96.156;2024-01-30T22:40:22;97782.88;;;16.72;34.75
83444;BME280;73374;41.170;-96.156;2024-01-30T22:45:27;97785.56;;;16.00;35.71
83444;BME280;73374;41.170;-96.156;2024-01-30T22:50:30;97772.38;;;16.72;34.45
83444;BME280;73374;41.170;-96.156;2024-01-30T22:55:33;97782.22;;;16.27;34.88
83444;BME280;73374;41.170;-96.156;2024-01-30T23:00:38;97785.66;;;15.92;35.81
83444;BME280;73374;41.170;-96.156;2024-01-30T23:05:42;97782.25;;;15.03;37.07
83444;BME280;73374;41.170;-96.156;2024-01-30T23:10:45;97776.88;;;14.44;38.01
83444;BME280;73374;41.170;-96.156;2024-01-30T23:15:50;97794.66;;;13.86;39.58
83444;BME280;73374;41.170;-96.156;2024-01-30T23:20:53;97801.13;;;12.72;41.60
83444;BME280;73374;41.170;-96.156;2024-01-30T23:25:56;97796.75;;;11.89;42.77
83444;BME280;73374;41.170;-96.156;2024-01-30T23:31:00;97803.94;;;11.61;44.41
83444;BME280;73374;41.170;-96.156;2024-01-30T23:36:04;97818.00;;;10.47;47.16
83444;BME280;73374;41.170;-96.156;2024-01-30T23:41:07;97799.97;;;10.27;47.64
83444;BME280;73374;41.170;-96.156;2024-01-30T23:46:12;97824.50;;;9.60;49.19
83444;BME280;73374;41.170;-96.156;2024-01-30T23:51:15;97825.53;;;8.74;52.34
83444;BME280;73374;41.170;-96.156;2024-01-30T23:56:18;97826.50;;;8.54;52.84
